sensor_id;sensor_type;location;lat;lon;timestamp;temperature;humidity
40023;DHT22;25713;-35.352;149.036;2022-12-01T00:01:48;16.50;93.50
40023;DHT22;25713;-35.352;149.036;2022-12-01T00:04:17;16.50;93.50
40023;DHT22;25713;-35.352;149.036;2022-12-01T00:06:47;16.60;93.80
40023;DHT22;25713;-35.352;149.036;2022-12-01T00:09:17;16.60;93.90
40023;DHT22;25713;-35.352;149.036;2022-12-01T00:11:51;16.60;93.60
40023;DHT22;25713;-35.352;149.036;2022-12-01T00:14:20;16.60;93.30
40023;DHT22;25713;-35.352;149.036;2022-12-01T00:16:49;16.60;93.30
40023;DHT22;25713;-35.352;149.036;2022-12-01T00:19:19;16.50;93.10
40023;DHT22;25713;-35.352;149.036;2022-12-01T00:21:52;16.60;93.30
40023;DHT22;25713;-35.352;149.036;2022-12-01T00:24:21;16.60;93.60
40023;DHT22;25713;-35.352;149.036;2022-12-01T00:26:52;16.70;93.10
40023;DHT22;25713;-35.352;149.036;2022-12-01T00:29:22;16.60;93.80
40023;DHT22;25713;-35.352;149.036;2022-12-01T00:31:51;16.70;93.60
40023;DHT22;25713;-35.352;149.036;2022-12-01T00:34:22;16.70;93.50
40023;DHT22;25713;-35.352;149.036;2022-12-01T00:36:52;16.70;93.20
40023;DHT22;25713;-35.352;149.036;2022-12-01T00:39:22;16.70;92.90
40023;DHT22;25713;-35.352;149.036;2022-12-01T00:41:54;16.70;93.00
40023;DHT22;25713;-35.352;149.036;2022-12-01T00:44:23;16.70;93.30
40023;DHT22;25713;-35.352;149.036;2022-12-01T00:46:53;16.80;92.80
40023;DHT22;25713;-35.352;149.036;2022-12-01T00:49:22;16.80;93.10
40023;DHT22;25713;-35.352;149.036;2022-12-01T00:51:51;16.80;93.20
40023;DHT22;25713;-35.352;149.036;2022-12-01T00:54:21;16.80;93.30
40023;DHT22;25713;-35.352;149.036;2022-12-01T00:56:50;16.80;93.50
40023;DHT22;25713;-35.352;149.036;2022-12-01T00:59:21;16.80;93.00
40023;DHT22;25713;-35.352;149.036;2022-12-01T01:01:52;16.80;94.30
40023;DHT22;25713;-35.352;149.036;2022-12-01T01:04:22;16.80;94.60
40023;DHT22;25713;-35.352;149.036;2022-12-01T01:06:51;16.80;94.30
40023;DHT22;25713;-35.352;149.036;2022-12-01T01:09:21;16.80;94.30
40023;DHT22;25713;-35.352;149.036;2022-12-01T01:11:50;16.80;93.90
40023;DHT22;25713;-35.352;149.036;2022-12-01T01:14:23;16.80;93.90
40023;DHT22;25713;-35.352;149.036;2022-12-01T01:16:51;16.80;93.70
40023;DHT22;25713;-35.352;149.036;2022-12-01T01:19:20;16.80;93.70
40023;DHT22;25713;-35.352;149.036;2022-12-01T01:21:50;16.90;93.30
40023;DHT22;25713;-35.352;149.036;2022-12-01T01:24:19;16.90;94.10
40023;DHT22;25713;-35.352;149.036;2022-12-01T01:26:49;16.80;94.50
40023;DHT22;25713;-35.352;149.036;2022-12-01T01:29:20;16.80;93.60
40023;DHT22;25713;-35.352;149.036;2022-12-01T01:31:50;16.80;94.20
40023;DHT22;25713;-35.352;149.036;2022-12-01T01:34:19;16.90;94.10
40023;DHT22;25713;-35.352;149.036;2022-12-01T01:36:48;16.90;94.50
40023;DHT22;25713;-35.352;149.036;2022-12-01T01:39:18;16.90;93.70
40023;DHT22;25713;-35.352;149.036;2022-12-01T01:41:47;16.90;94.20
40023;DHT22;25713;-35.352;149.036;2022-12-01T01:44:48;17.00;94.10
40023;DHT22;25713;-35.352;149.036;2022-12-01T01:47:20;17.00;94.50
40023;DHT22;25713;-35.352;149.036;2022-12-01T01:49:50;17.00;93.60
40023;DHT22;25713;-35.352;149.036;2022-12-01T01:52:20;17.00;94.40
40023;DHT22;25713;-35.352;149.036;2022-12-01T01:54:52;16.90;94.70
40023;DHT22;25713;-35.352;149.036;2022-12-01T01:57:27;16.90;94.30
40023;DHT22;25713;-35.352;149.036;2022-12-01T02:00:03;16.90;94.30
40023;DHT22;25713;-35.352;149.036;2022-12-01T02:02:42;17.00;94.20
40023;DHT22;25713;-35.352;149.036;2022-12-01T02:05:15;17.00;94.30
40023;DHT22;25713;-35.352;149.036;2022-12-01T02:07:47;17.00;93.40
40023;DHT22;25713;-35.352;149.036;2022-12-01T02:10:18;17.00;93.40
40023;DHT22;25713;-35.352;149.036;2022-12-01T02:13:00;17.00;94.10
40023;DHT22;25713;-35.352;149.036;2022-12-01T02:15:36;17.00;93.70
40023;DHT22;25713;-35.352;149.036;2022-12-01T02:18:19;17.10;93.00
40023;DHT22;25713;-35.352;149.036;2022-12-01T02:24:47;17.10;93.90
40023;DHT22;25713;-35.352;149.036;2022-12-01T02:27:31;17.10;93.30
40023;DHT22;25713;-35.352;149.036;2022-12-01T02:30:08;17.20;93.70
40023;DHT22;25713;-35.352;149.036;2022-12-01T02:32:44;17.20;93.80
40023;DHT22;25713;-35.352;149.036;2022-12-01T02:35:19;17.10;93.80
40023;DHT22;25713;-35.352;149.036;2022-12-01T02:37:58;17.20;93.50
40023;DHT22;25713;-35.352;149.036;2022-12-01T02:40:33;17.20;94.10
40023;DHT22;25713;-35.352;149.036;2022-12-01T02:43:11;17.30;94.30
40023;DHT22;25713;-35.352;149.036;2022-12-01T02:45:46;17.30;93.70
40023;DHT22;25713;-35.352;149.036;2022-12-01T02:48:22;17.40;93.90
40023;DHT22;25713;-35.352;149.036;2022-12-01T02:50:56;17.50;93.80
40023;DHT22;25713;-35.352;149.036;2022-12-01T02:53:26;17.50;93.40
40023;DHT22;25713;-35.352;149.036;2022-12-01T02:55:58;17.60;93.40
40023;DHT22;25713;-35.352;149.036;2022-12-01T02:58:27;17.60;93.30
40023;DHT22;25713;-35.352;149.036;2022-12-01T03:04:00;17.60;93.10
40023;DHT22;25713;-35.352;149.036;2022-12-01T03:06:39;17.60;92.70
40023;DHT22;25713;-35.352;149.036;2022-12-01T03:09:16;17.60;92.90
40023;DHT22;25713;-35.352;149.036;2022-12-01T03:11:58;17.60;92.30
40023;DHT22;25713;-35.352;149.036;2022-12-01T03:14:38;17.60;92.50
40023;DHT22;25713;-35.352;149.036;2022-12-01T03:17:12;17.60;92.30
40023;DHT22;25713;-35.352;149.036;2022-12-01T03:19:51;17.60;92.30
40023;DHT22;25713;-35.352;149.036;2022-12-01T03:22:24;17.50;92.30
40023;DHT22;25713;-35.352;149.036;2022-12-01T03:24:55;17.60;91.80
40023;DHT22;25713;-35.352;149.036;2022-12-01T03:27:28;17.60;92.30
40023;DHT22;25713;-35.352;149.036;2022-12-01T03:29:59;17.50;92.30
40023;DHT22;25713;-35.352;149.036;2022-12-01T03:32:32;17.60;92.40
40023;DHT22;25713;-35.352;149.036;2022-12-01T03:35:09;17.60;92.30
40023;DHT22;25713;-35.352;149.036;2022-12-01T03:37:44;17.60;92.60
40023;DHT22;25713;-35.352;149.036;2022-12-01T03:40:16;17.60;92.80
40023;DHT22;25713;-35.352;149.036;2022-12-01T03:42:51;17.60;92.80
40023;DHT22;25713;-35.352;149.036;2022-12-01T03:45:26;17.60;92.70
40023;DHT22;25713;-35.352;149.036;2022-12-01T03:48:00;17.60;92.60
40023;DHT22;25713;-35.352;149.036;2022-12-01T03:50:37;17.60;92.70
40023;DHT22;25713;-35.352;149.036;2022-12-01T03:53:13;17.60;92.80
40023;DHT22;25713;-35.352;149.036;2022-12-01T03:55:51;17.60;92.50
40023;DHT22;25713;-35.352;149.036;2022-12-01T03:58:26;17.60;92.90
40023;DHT22;25713;-35.352;149.036;2022-12-01T04:00:57;17.60;92.60
40023;DHT22;25713;-35.352;149.036;2022-12-01T04:03:27;17.70;92.40
40023;DHT22;25713;-35.352;149.036;2022-12-01T04:05:58;17.70;92.80
40023;DHT22;25713;-35.352;149.036;2022-12-01T04:08:28;17.70;92.60
40023;DHT22;25713;-35.352;149.036;2022-12-01T04:10:57;17.70;92.80
40023;DHT22;25713;-35.352;149.036;2022-12-01T04:13:27;17.70;92.80
40023;DHT22;25713;-35.352;149.036;2022-12-01T04:15:56;17.70;92.60
40023;DHT22;25713;-35.352;149.036;2022-12-01T04:18:25;17.70;92.40
40023;DHT22;25713;-35.352;149.036;2022-12-01T04:20:57;17.70;92.20
40023;DHT22;25713;-35.352;149.036;2022-12-01T04:23:26;17.80;92.30
40023;DHT22;25713;-35.352;149.036;2022-12-01T04:25:59;17.70;92.60
40023;DHT22;25713;-35.352;149.036;2022-12-01T04:28:28;17.70;92.50
40023;DHT22;25713;-35.352;149.036;2022-12-01T04:30:58;17.70;92.60
40023;DHT22;25713;-35.352;149.036;2022-12-01T04:33:29;17.60;92.60
40023;DHT22;25713;-35.352;149.036;2022-12-01T04:36:01;17.70;92.80
40023;DHT22;25713;-35.352;149.036;2022-12-01T04:38:30;17.70;92.90
40023;DHT22;25713;-35.352;149.036;2022-12-01T04:40:59;17.80;93.20
40023;DHT22;25713;-35.352;149.036;2022-12-01T04:43:29;17.80;93.10
40023;DHT22;25713;-35.352;149.036;2022-12-01T04:45:58;17.80;93.00
40023;DHT22;25713;-35.352;149.036;2022-12-01T04:48:28;17.80;93.00
40023;DHT22;25713;-35.352;149.036;2022-12-01T04:50:59;17.90;92.70
40023;DHT22;25713;-35.352;149.036;2022-12-01T04:53:29;17.90;92.40
40023;DHT22;25713;-35.352;149.036;2022-12-01T04:55:59;17.90;92.30
40023;DHT22;25713;-35.352;149.036;2022-12-01T04:58:29;18.00;92.20
40023;DHT22;25713;-35.352;149.036;2022-12-01T05:01:02;18.00;92.30
40023;DHT22;25713;-35.352;149.036;2022-12-01T05:03:34;18.00;92.30
40023;DHT22;25713;-35.352;149.036;2022-12-01T05:06:07;18.00;92.30
40023;DHT22;25713;-35.352;149.036;2022-12-01T05:08:36;18.00;92.20
40023;DHT22;25713;-35.352;149.036;2022-12-01T05:11:07;18.10;92.00
40023;DHT22;25713;-35.352;149.036;2022-12-01T05:13:37;18.10;91.70
40023;DHT22;25713;-35.352;149.036;2022-12-01T05:16:09;18.10;92.00
40023;DHT22;25713;-35.352;149.036;2022-12-01T05:18:39;18.10;92.00
40023;DHT22;25713;-35.352;149.036;2022-12-01T05:21:11;18.10;92.40
40023;DHT22;25713;-35.352;149.036;2022-12-01T05:23:39;18.00;92.70
40023;DHT22;25713;-35.352;149.036;2022-12-01T05:26:09;18.00;92.40
40023;DHT22;25713;-35.352;149.036;2022-12-01T05:28:38;18.00;92.30
40023;DHT22;25713;-35.352;149.036;2022-12-01T05:31:08;17.90;92.20
40023;DHT22;25713;-35.352;149.036;2022-12-01T05:33:37;17.90;91.80
40023;DHT22;25713;-35.352;149.036;2022-12-01T05:36:09;17.90;92.00
40023;DHT22;25713;-35.352;149.036;2022-12-01T05:38:38;17.90;92.10
40023;DHT22;25713;-35.352;149.036;2022-12-01T05:41:07;17.80;92.10
40023;DHT22;25713;-35.352;149.036;2022-12-01T05:43:37;17.80;92.10
40023;DHT22;25713;-35.352;149.036;2022-12-01T05:46:07;17.80;92.30
40023;DHT22;25713;-35.352;149.036;2022-12-01T05:48:36;17.80;92.20
40023;DHT22;25713;-35.352;149.036;2022-12-01T05:51:11;17.80;92.00
40023;DHT22;25713;-35.352;149.036;2022-12-01T05:53:42;17.80;92.30
40023;DHT22;25713;-35.352;149.036;2022-12-01T05:56:11;17.80;92.10
40023;DHT22;25713;-35.352;149.036;2022-12-01T05:58:40;17.90;92.00
40023;DHT22;25713;-35.352;149.036;2022-12-01T06:01:10;17.90;91.80
40023;DHT22;25713;-35.352;149.036;2022-12-01T06:03:39;17.90;91.80
40023;DHT22;25713;-35.352;149.036;2022-12-01T06:06:11;17.90;91.80
40023;DHT22;25713;-35.352;149.036;2022-12-01T06:08:40;17.90;92.10
40023;DHT22;25713;-35.352;149.036;2022-12-01T06:11:10;17.80;91.50
40023;DHT22;25713;-35.352;149.036;2022-12-01T06:13:40;17.90;91.60
40023;DHT22;25713;-35.352;149.036;2022-12-01T06:16:09;17.90;91.90
40023;DHT22;25713;-35.352;149.036;2022-12-01T06:18:39;17.90;91.70
40023;DHT22;25713;-35.352;149.036;2022-12-01T06:21:10;17.90;91.60
40023;DHT22;25713;-35.352;149.036;2022-12-01T06:23:40;18.00;91.70
40023;DHT22;25713;-35.352;149.036;2022-12-01T06:26:09;18.00;91.30
40023;DHT22;25713;-35.352;149.036;2022-12-01T06:28:38;18.00;91.70
40023;DHT22;25713;-35.352;149.036;2022-12-01T06:31:08;18.00;91.40
40023;DHT22;25713;-35.352;149.036;2022-12-01T06:33:37;18.00;91.40
40023;DHT22;25713;-35.352;149.036;2022-12-01T06:36:07;18.00;91.40
40023;DHT22;25713;-35.352;149.036;2022-12-01T06:38:39;17.90;91.40
40023;DHT22;25713;-35.352;149.036;2022-12-01T06:41:08;17.90;91.60
40023;DHT22;25713;-35.352;149.036;2022-12-01T06:43:38;17.90;91.40
40023;DHT22;25713;-35.352;149.036;2022-12-01T06:46:07;17.90;91.10
40023;DHT22;25713;-35.352;149.036;2022-12-01T06:48:36;17.90;91.20
40023;DHT22;25713;-35.352;149.036;2022-12-01T06:51:06;17.90;91.30
40023;DHT22;25713;-35.352;149.036;2022-12-01T06:53:37;17.80;91.70
40023;DHT22;25713;-35.352;149.036;2022-12-01T06:56:07;17.80;91.70
40023;DHT22;25713;-35.352;149.036;2022-12-01T06:58:36;17.80;91.50
40023;DHT22;25713;-35.352;149.036;2022-12-01T07:01:09;17.80;91.70
40023;DHT22;25713;-35.352;149.036;2022-12-01T07:03:39;17.80;91.80
40023;DHT22;25713;-35.352;149.036;2022-12-01T07:06:08;17.80;91.40
40023;DHT22;25713;-35.352;149.036;2022-12-01T07:08:40;17.80;91.90
40023;DHT22;25713;-35.352;149.036;2022-12-01T07:11:12;17.70;92.30
40023;DHT22;25713;-35.352;149.036;2022-12-01T07:13:42;17.70;92.50
40023;DHT22;25713;-35.352;149.036;2022-12-01T07:16:12;17.70;92.10
40023;DHT22;25713;-35.352;149.036;2022-12-01T07:18:42;17.70;92.30
40023;DHT22;25713;-35.352;149.036;2022-12-01T07:21:13;17.70;92.00
40023;DHT22;25713;-35.352;149.036;2022-12-01T07:23:45;17.70;92.00
40023;DHT22;25713;-35.352;149.036;2022-12-01T07:26:15;17.70;92.00
40023;DHT22;25713;-35.352;149.036;2022-12-01T07:28:45;17.70;91.90
40023;DHT22;25713;-35.352;149.036;2022-12-01T07:31:16;17.70;92.10
40023;DHT22;25713;-35.352;149.036;2022-12-01T07:33:46;17.70;92.20
40023;DHT22;25713;-35.352;149.036;2022-12-01T07:36:15;17.60;92.00
40023;DHT22;25713;-35.352;149.036;2022-12-01T07:38:46;17.60;91.80
40023;DHT22;25713;-35.352;149.036;2022-12-01T07:41:16;17.60;91.80
40023;DHT22;25713;-35.352;149.036;2022-12-01T07:43:46;17.60;91.90
40023;DHT22;25713;-35.352;149.036;2022-12-01T07:46:17;17.60;92.10
40023;DHT22;25713;-35.352;149.036;2022-12-01T07:48:47;17.60;92.30
40023;DHT22;25713;-35.352;149.036;2022-12-01T07:51:17;17.60;92.60
40023;DHT22;25713;-35.352;149.036;2022-12-01T07:53:51;17.60;92.60
40023;DHT22;25713;-35.352;149.036;2022-12-01T07:56:21;17.60;92.60
40023;DHT22;25713;-35.352;149.036;2022-12-01T07:58:51;17.60;92.70
40023;DHT22;25713;-35.352;149.036;2022-12-01T08:01:21;17.50;92.90
40023;DHT22;25713;-35.352;149.036;2022-12-01T08:03:51;17.50;93.10
40023;DHT22;25713;-35.352;149.036;2022-12-01T08:06:22;17.50;93.00
40023;DHT22;25713;-35.352;149.036;2022-12-01T08:08:55;17.50;93.10
40023;DHT22;25713;-35.352;149.036;2022-12-01T08:11:26;17.40;93.20
40023;DHT22;25713;-35.352;149.036;2022-12-01T08:13:56;17.40;93.20
40023;DHT22;25713;-35.352;149.036;2022-12-01T08:16:26;17.40;93.10
40023;DHT22;25713;-35.352;149.036;2022-12-01T08:18:55;17.40;93.20
40023;DHT22;25713;-35.352;149.036;2022-12-01T08:21:25;17.30;93.20
40023;DHT22;25713;-35.352;149.036;2022-12-01T08:23:58;17.30;93.30
40023;DHT22;25713;-35.352;149.036;2022-12-01T08:26:27;17.30;93.20
40023;DHT22;25713;-35.352;149.036;2022-12-01T08:28:57;17.30;93.20
40023;DHT22;25713;-35.352;149.036;2022-12-01T08:31:28;17.20;93.50
40023;DHT22;25713;-35.352;149.036;2022-12-01T08:33:58;17.30;93.50
40023;DHT22;25713;-35.352;149.036;2022-12-01T08:36:27;17.20;93.60
40023;DHT22;25713;-35.352;149.036;2022-12-01T08:38:59;17.20;93.50
40023;DHT22;25713;-35.352;149.036;2022-12-01T08:41:28;17.20;93.50
40023;DHT22;25713;-35.352;149.036;2022-12-01T08:43:57;17.20;93.70
40023;DHT22;25713;-35.352;149.036;2022-12-01T08:46:27;17.20;93.70
40023;DHT22;25713;-35.352;149.036;2022-12-01T08:48:59;17.20;93.50
40023;DHT22;25713;-35.352;149.036;2022-12-01T08:51:28;17.20;93.90
40023;DHT22;25713;-35.352;149.036;2022-12-01T08:54:01;17.20;94.00
40023;DHT22;25713;-35.352;149.036;2022-12-01T08:56:32;17.20;94.10
40023;DHT22;25713;-35.352;149.036;2022-12-01T08:59:02;17.20;94.40
40023;DHT22;25713;-35.352;149.036;2022-12-01T09:01:31;17.20;94.10
40023;DHT22;25713;-35.352;149.036;2022-12-01T09:04:01;17.20;94.00
40023;DHT22;25713;-35.352;149.036;2022-12-01T09:06:32;17.20;94.10
40023;DHT22;25713;-35.352;149.036;2022-12-01T09:09:05;17.10;93.90
40023;DHT22;25713;-35.352;149.036;2022-12-01T09:11:34;17.20;94.10
40023;DHT22;25713;-35.352;149.036;2022-12-01T09:14:04;17.10;94.00
40023;DHT22;25713;-35.352;149.036;2022-12-01T09:16:34;17.10;93.90
40023;DHT22;25713;-35.352;149.036;2022-12-01T09:19:04;17.10;94.20
40023;DHT22;25713;-35.352;149.036;2022-12-01T09:21:34;17.10;94.10
40023;DHT22;25713;-35.352;149.036;2022-12-01T09:24:08;17.10;94.20
40023;DHT22;25713;-35.352;149.036;2022-12-01T09:26:38;17.10;94.30
40023;DHT22;25713;-35.352;149.036;2022-12-01T09:29:09;17.10;94.10
40023;DHT22;25713;-35.352;149.036;2022-12-01T09:31:39;17.10;94.10
40023;DHT22;25713;-35.352;149.036;2022-12-01T09:34:10;17.10;94.50
40023;DHT22;25713;-35.352;149.036;2022-12-01T09:36:40;17.00;94.30
40023;DHT22;25713;-35.352;149.036;2022-12-01T09:39:14;17.10;94.60
40023;DHT22;25713;-35.352;149.036;2022-12-01T09:41:46;17.10;94.70
40023;DHT22;25713;-35.352;149.036;2022-12-01T09:44:18;17.00;94.50
40023;DHT22;25713;-35.352;149.036;2022-12-01T09:46:56;17.00;94.60
40023;DHT22;25713;-35.352;149.036;2022-12-01T09:49:46;17.00;94.80
40023;DHT22;25713;-35.352;149.036;2022-12-01T09:52:19;17.00;94.80
40023;DHT22;25713;-35.352;149.036;2022-12-01T09:54:50;17.00;94.90
40023;DHT22;25713;-35.352;149.036;2022-12-01T09:57:27;16.90;95.30
40023;DHT22;25713;-35.352;149.036;2022-12-01T09:59:57;16.90;95.20
40023;DHT22;25713;-35.352;149.036;2022-12-01T10:02:32;16.90;95.30
40023;DHT22;25713;-35.352;149.036;2022-12-01T10:05:04;17.00;95.40
40023;DHT22;25713;-35.352;149.036;2022-12-01T10:07:37;17.00;95.30
40023;DHT22;25713;-35.352;149.036;2022-12-01T10:10:13;17.00;95.70
40023;DHT22;25713;-35.352;149.036;2022-12-01T10:12:44;17.00;95.40
40023;DHT22;25713;-35.352;149.036;2022-12-01T10:15:26;17.00;95.50
40023;DHT22;25713;-35.352;149.036;2022-12-01T10:18:06;16.90;95.40
40023;DHT22;25713;-35.352;149.036;2022-12-01T10:20:40;16.90;95.60
40023;DHT22;25713;-35.352;149.036;2022-12-01T10:23:36;16.90;95.60
40023;DHT22;25713;-35.352;149.036;2022-12-01T10:26:13;17.00;95.70
40023;DHT22;25713;-35.352;149.036;2022-12-01T10:29:07;17.00;95.70
40023;DHT22;25713;-35.352;149.036;2022-12-01T10:31:48;17.00;95.80
40023;DHT22;25713;-35.352;149.036;2022-12-01T10:34:21;16.90;95.60
40023;DHT22;25713;-35.352;149.036;2022-12-01T10:36:51;16.90;95.60
40023;DHT22;25713;-35.352;149.036;2022-12-01T10:39:26;16.90;95.60
40023;DHT22;25713;-35.352;149.036;2022-12-01T10:42:03;16.90;95.60
40023;DHT22;25713;-35.352;149.036;2022-12-01T10:44:34;16.90;95.90
40023;DHT22;25713;-35.352;149.036;2022-12-01T10:47:04;16.90;95.60
40023;DHT22;25713;-35.352;149.036;2022-12-01T10:49:39;16.90;95.70
40023;DHT22;25713;-35.352;149.036;2022-12-01T10:52:30;16.90;95.70
40023;DHT22;25713;-35.352;149.036;2022-12-01T10:55:00;16.80;95.70
40023;DHT22;25713;-35.352;149.036;2022-12-01T10:57:32;16.80;95.90
40023;DHT22;25713;-35.352;149.036;2022-12-01T11:00:03;16.80;95.90
40023;DHT22;25713;-35.352;149.036;2022-12-01T11:02:33;16.80;95.90
40023;DHT22;25713;-35.352;149.036;2022-12-01T11:05:04;16.90;96.00
40023;DHT22;25713;-35.352;149.036;2022-12-01T11:07:40;16.90;95.90
40023;DHT22;25713;-35.352;149.036;2022-12-01T11:10:18;16.80;95.90
40023;DHT22;25713;-35.352;149.036;2022-12-01T11:13:05;16.80;96.10
40023;DHT22;25713;-35.352;149.036;2022-12-01T11:15:39;16.80;96.00
40023;DHT22;25713;-35.352;149.036;2022-12-01T11:18:23;16.80;96.10
40023;DHT22;25713;-35.352;149.036;2022-12-01T11:21:07;16.90;96.20
40023;DHT22;25713;-35.352;149.036;2022-12-01T11:23:37;16.90;96.20
40023;DHT22;25713;-35.352;149.036;2022-12-01T11:26:17;16.90;96.50
40023;DHT22;25713;-35.352;149.036;2022-12-01T11:29:00;16.90;96.40
40023;DHT22;25713;-35.352;149.036;2022-12-01T11:31:38;16.90;96.40
40023;DHT22;25713;-35.352;149.036;2022-12-01T11:34:16;16.90;96.50
40023;DHT22;25713;-35.352;149.036;2022-12-01T11:36:47;16.90;96.60
40023;DHT22;25713;-35.352;149.036;2022-12-01T11:39:24;16.90;96.50
40023;DHT22;25713;-35.352;149.036;2022-12-01T11:41:56;16.90;96.50
40023;DHT22;25713;-35.352;149.036;2022-12-01T11:44:32;16.90;96.50
40023;DHT22;25713;-35.352;149.036;2022-12-01T11:47:13;16.90;96.60
40023;DHT22;25713;-35.352;149.036;2022-12-01T11:49:44;16.90;96.80
40023;DHT22;25713;-35.352;149.036;2022-12-01T11:52:25;16.90;96.90
40023;DHT22;25713;-35.352;149.036;2022-12-01T11:54:58;16.90;96.80
40023;DHT22;25713;-35.352;149.036;2022-12-01T11:57:29;16.90;96.90
40023;DHT22;25713;-35.352;149.036;2022-12-01T12:00:01;16.90;96.80
40023;DHT22;25713;-35.352;149.036;2022-12-01T12:02:38;16.90;96.90
40023;DHT22;25713;-35.352;149.036;2022-12-01T12:05:31;16.90;97.10
40023;DHT22;25713;-35.352;149.036;2022-12-01T12:08:12;16.90;96.80
40023;DHT22;25713;-35.352;149.036;2022-12-01T12:10:48;16.90;96.70
40023;DHT22;25713;-35.352;149.036;2022-12-01T12:13:52;16.90;97.00
40023;DHT22;25713;-35.352;149.036;2022-12-01T12:16:38;16.90;97.10
40023;DHT22;25713;-35.352;149.036;2022-12-01T12:19:24;16.90;97.20
40023;DHT22;25713;-35.352;149.036;2022-12-01T12:22:04;16.80;97.10
40023;DHT22;25713;-35.352;149.036;2022-12-01T12:24:49;16.80;97.00
40023;DHT22;25713;-35.352;149.036;2022-12-01T12:27:25;16.80;97.10
40023;DHT22;25713;-35.352;149.036;2022-12-01T12:30:10;16.90;97.10
40023;DHT22;25713;-35.352;149.036;2022-12-01T12:35:43;16.80;97.30
40023;DHT22;25713;-35.352;149.036;2022-12-01T12:38:27;16.80;97.30
40023;DHT22;25713;-35.352;149.036;2022-12-01T12:41:13;16.80;97.40
40023;DHT22;25713;-35.352;149.036;2022-12-01T12:43:50;16.80;97.50
40023;DHT22;25713;-35.352;149.036;2022-12-01T12:46:29;16.80;97.50
40023;DHT22;25713;-35.352;149.036;2022-12-01T12:49:15;16.80;97.50
40023;DHT22;25713;-35.352;149.036;2022-12-01T12:51:49;16.80;97.30
40023;DHT22;25713;-35.352;149.036;2022-12-01T12:54:24;16.80;97.50
40023;DHT22;25713;-35.352;149.036;2022-12-01T12:56:59;16.80;97.40
40023;DHT22;25713;-35.352;149.036;2022-12-01T12:59:43;16.70;97.70
40023;DHT22;25713;-35.352;149.036;2022-12-01T13:02:19;16.70;97.50
40023;DHT22;25713;-35.352;149.036;2022-12-01T13:04:58;16.70;97.40
40023;DHT22;25713;-35.352;149.036;2022-12-01T13:07:34;16.70;97.30
40023;DHT22;25713;-35.352;149.036;2022-12-01T13:10:13;16.70;97.50
40023;DHT22;25713;-35.352;149.036;2022-12-01T13:12:51;16.70;97.60
40023;DHT22;25713;-35.352;149.036;2022-12-01T13:15:23;16.70;97.50
40023;DHT22;25713;-35.352;149.036;2022-12-01T13:17:56;16.70;97.70
40023;DHT22;25713;-35.352;149.036;2022-12-01T13:20:29;16.60;97.60
40023;DHT22;25713;-35.352;149.036;2022-12-01T13:22:59;16.70;97.60
40023;DHT22;25713;-35.352;149.036;2022-12-01T13:25:34;16.70;97.60
40023;DHT22;25713;-35.352;149.036;2022-12-01T13:28:11;16.70;97.70
40023;DHT22;25713;-35.352;149.036;2022-12-01T13:31:01;16.70;98.00
40023;DHT22;25713;-35.352;149.036;2022-12-01T13:33:31;16.60;98.00
40023;DHT22;25713;-35.352;149.036;2022-12-01T13:36:08;16.60;97.90
40023;DHT22;25713;-35.352;149.036;2022-12-01T13:38:39;16.60;98.00
40023;DHT22;25713;-35.352;149.036;2022-12-01T13:41:24;16.60;98.00
40023;DHT22;25713;-35.352;149.036;2022-12-01T13:43:59;16.70;98.10
40023;DHT22;25713;-35.352;149.036;2022-12-01T13:46:32;16.70;98.10
40023;DHT22;25713;-35.352;149.036;2022-12-01T13:49:42;16.60;98.20
40023;DHT22;25713;-35.352;149.036;2022-12-01T13:52:30;16.70;98.20
40023;DHT22;25713;-35.352;149.036;2022-12-01T13:57:49;16.60;98.30
40023;DHT22;25713;-35.352;149.036;2022-12-01T14:00:38;16.70;98.10
40023;DHT22;25713;-35.352;149.036;2022-12-01T14:03:31;16.60;98.20
40023;DHT22;25713;-35.352;149.036;2022-12-01T14:06:08;16.60;98.10
40023;DHT22;25713;-35.352;149.036;2022-12-01T14:08:45;16.60;98.20
40023;DHT22;25713;-35.352;149.036;2022-12-01T14:11:21;16.60;98.30
40023;DHT22;25713;-35.352;149.036;2022-12-01T14:13:53;16.60;98.40
40023;DHT22;25713;-35.352;149.036;2022-12-01T14:16:24;16.70;98.30
40023;DHT22;25713;-35.352;149.036;2022-12-01T14:18:56;16.60;98.30
40023;DHT22;25713;-35.352;149.036;2022-12-01T14:21:41;16.70;98.20
40023;DHT22;25713;-35.352;149.036;2022-12-01T14:24:22;16.60;98.20
40023;DHT22;25713;-35.352;149.036;2022-12-01T14:26:53;16.60;98.30
40023;DHT22;25713;-35.352;149.036;2022-12-01T14:29:33;16.60;98.30
40023;DHT22;25713;-35.352;149.036;2022-12-01T14:32:26;16.60;98.30
40023;DHT22;25713;-35.352;149.036;2022-12-01T14:35:09;16.60;98.20
40023;DHT22;25713;-35.352;149.036;2022-12-01T14:37:46;16.60;98.30
40023;DHT22;25713;-35.352;149.036;2022-12-01T14:40:23;16.60;98.30
40023;DHT22;25713;-35.352;149.036;2022-12-01T14:42:55;16.60;98.20
40023;DHT22;25713;-35.352;149.036;2022-12-01T14:45:27;16.60;98.10
40023;DHT22;25713;-35.352;149.036;2022-12-01T14:48:03;16.60;98.40
40023;DHT22;25713;-35.352;149.036;2022-12-01T14:50:37;16.60;98.40
40023;DHT22;25713;-35.352;149.036;2022-12-01T15:53:37;16.20;98.80
40023;DHT22;25713;-35.352;149.036;2022-12-01T15:56:09;16.20;99.10
40023;DHT22;25713;-35.352;149.036;2022-12-01T15:58:42;16.20;99.20
40023;DHT22;25713;-35.352;149.036;2022-12-01T16:01:14;16.20;99.20
40023;DHT22;25713;-35.352;149.036;2022-12-01T16:03:59;16.30;99.10
40023;DHT22;25713;-35.352;149.036;2022-12-01T16:06:31;16.30;98.90
40023;DHT22;25713;-35.352;149.036;2022-12-01T16:09:03;16.30;98.60
40023;DHT22;25713;-35.352;149.036;2022-12-01T16:11:33;16.30;98.50
40023;DHT22;25713;-35.352;149.036;2022-12-01T16:14:04;16.30;98.70
40023;DHT22;25713;-35.352;149.036;2022-12-01T16:16:38;16.30;98.60
40023;DHT22;25713;-35.352;149.036;2022-12-01T16:19:26;16.30;98.40
40023;DHT22;25713;-35.352;149.036;2022-12-01T16:21:59;16.40;98.30
40023;DHT22;25713;-35.352;149.036;2022-12-01T16:24:32;16.40;98.20
40023;DHT22;25713;-35.352;149.036;2022-12-01T16:27:05;16.40;98.10
40023;DHT22;25713;-35.352;149.036;2022-12-01T16:29:49;16.40;98.20
40023;DHT22;25713;-35.352;149.036;2022-12-01T16:32:20;16.40;98.20
40023;DHT22;25713;-35.352;149.036;2022-12-01T16:34:51;16.40;98.20
40023;DHT22;25713;-35.352;149.036;2022-12-01T16:37:21;16.40;98.20
40023;DHT22;25713;-35.352;149.036;2022-12-01T16:39:52;16.40;98.10